sensor_id;sensor_type;location;lat;lon;timestamp;P1;durP1;ratioP1;P2;durP2;ratioP2
57663;SDS011;43493;53.098;6.064;2023-04-29T00:01:25;30.53;;;19.77;;
57663;SDS011;43493;53.098;6.064;2023-04-29T00:03:50;37.63;;;20.73;;
57663;SDS011;43493;53.098;6.064;2023-04-29T00:06:17;32.10;;;19.13;;
57663;SDS011;43493;53.098;6.064;2023-04-29T00:08:42;35.03;;;19.53;;
57663;SDS011;43493;53.098;6.064;2023-04-29T00:11:08;29.73;;;20.17;;
57663;SDS011;43493;53.098;6.064;2023-04-29T00:13:35;37.27;;;21.40;;
57663;SDS011;43493;53.098;6.064;2023-04-29T00:16:03;29.20;;;19.50;;
57663;SDS011;43493;53.098;6.064;2023-04-29T00:18:29;36.00;;;20.57;;
57663;SDS011;43493;53.098;6.064;2023-04-29T00:20:56;29.13;;;19.27;;
57663;SDS011;43493;53.098;6.064;2023-04-29T00:23:22;35.33;;;20.50;;
57663;SDS011;43493;53.098;6.064;2023-04-29T00:25:47;34.90;;;20.97;;
57663;SDS011;43493;53.098;6.064;2023-04-29T00:28:14;35.60;;;20.87;;
57663;SDS011;43493;53.098;6.064;2023-04-29T00:30:40;30.60;;;20.33;;
57663;SDS011;43493;53.098;6.064;2023-04-29T00:33:05;34.60;;;19.47;;
57663;SDS011;43493;53.098;6.064;2023-04-29T00:35:31;31.33;;;18.93;;
57663;SDS011;43493;53.098;6.064;2023-04-29T00:37:57;30.37;;;19.60;;
57663;SDS011;43493;53.098;6.064;2023-04-29T00:40:22;37.83;;;21.27;;
57663;SDS011;43493;53.098;6.064;2023-04-29T00:42:48;32.80;;;19.97;;
57663;SDS011;43493;53.098;6.064;2023-04-29T00:45:14;28.03;;;19.77;;
57663;SDS011;43493;53.098;6.064;2023-04-29T00:47:40;30.80;;;19.93;;
57663;SDS011;43493;53.098;6.064;2023-04-29T00:50:06;39.87;;;20.83;;
57663;SDS011;43493;53.098;6.064;2023-04-29T00:52:33;31.53;;;19.70;;
57663;SDS011;43493;53.098;6.064;2023-04-29T00:54:59;28.83;;;19.50;;
57663;SDS011;43493;53.098;6.064;2023-04-29T00:57:25;34.73;;;20.60;;
57663;SDS011;43493;53.098;6.064;2023-04-29T00:59:57;30.67;;;19.83;;
57663;SDS011;43493;53.098;6.064;2023-04-29T01:02:23;31.97;;;21.03;;
57663;SDS011;43493;53.098;6.064;2023-04-29T01:04:50;33.10;;;20.40;;
57663;SDS011;43493;53.098;6.064;2023-04-29T01:07:18;34.07;;;20.07;;
57663;SDS011;43493;53.098;6.064;2023-04-29T01:10:00;27.07;;;19.03;;
57663;SDS011;43493;53.098;6.064;2023-04-29T01:12:45;25.60;;;19.07;;
57663;SDS011;43493;53.098;6.064;2023-04-29T01:15:32;27.93;;;18.97;;
57663;SDS011;43493;53.098;6.064;2023-04-29T01:18:23;32.43;;;19.40;;
57663;SDS011;43493;53.098;6.064;2023-04-29T01:20:52;27.75;;;20.35;;
57663;SDS011;43493;53.098;6.064;2023-04-29T01:23:25;28.27;;;17.83;;
57663;SDS011;43493;53.098;6.064;2023-04-29T01:25:51;30.00;;;19.27;;
57663;SDS011;43493;53.098;6.064;2023-04-29T01:44:30;29.37;;;19.63;;
57663;SDS011;43493;53.098;6.064;2023-04-29T01:46:58;30.10;;;19.00;;
57663;SDS011;43493;53.098;6.064;2023-04-29T01:49:28;31.20;;;19.87;;
57663;SDS011;43493;53.098;6.064;2023-04-29T01:51:54;32.67;;;19.13;;
57663;SDS011;43493;53.098;6.064;2023-04-29T01:54:20;33.53;;;20.17;;
57663;SDS011;43493;53.098;6.064;2023-04-29T01:56:47;32.80;;;20.33;;
57663;SDS011;43493;53.098;6.064;2023-04-29T01:59:12;32.40;;;20.03;;
57663;SDS011;43493;53.098;6.064;2023-04-29T02:01:38;29.17;;;21.00;;
57663;SDS011;43493;53.098;6.064;2023-04-29T02:04:04;33.43;;;19.50;;
57663;SDS011;43493;53.098;6.064;2023-04-29T02:06:29;30.17;;;18.60;;
57663;SDS011;43493;53.098;6.064;2023-04-29T02:08:56;32.13;;;19.93;;
57663;SDS011;43493;53.098;6.064;2023-04-29T02:11:22;29.67;;;18.83;;
57663;SDS011;43493;53.098;6.064;2023-04-29T02:13:48;33.43;;;19.50;;
57663;SDS011;43493;53.098;6.064;2023-04-29T02:16:14;36.67;;;20.70;;
57663;SDS011;43493;53.098;6.064;2023-04-29T02:18:40;34.57;;;19.70;;
57663;SDS011;43493;53.098;6.064;2023-04-29T02:21:06;34.90;;;20.70;;
57663;SDS011;43493;53.098;6.064;2023-04-29T02:23:35;34.57;;;20.37;;
57663;SDS011;43493;53.098;6.064;2023-04-29T02:26:01;34.83;;;21.07;;
57663;SDS011;43493;53.098;6.064;2023-04-29T02:28:31;33.03;;;20.80;;
57663;SDS011;43493;53.098;6.064;2023-04-29T02:31:00;27.23;;;18.77;;
57663;SDS011;43493;53.098;6.064;2023-04-29T02:33:26;30.83;;;21.00;;
57663;SDS011;43493;53.098;6.064;2023-04-29T02:35:52;33.80;;;21.03;;
57663;SDS011;43493;53.098;6.064;2023-04-29T02:38:17;33.93;;;21.97;;
57663;SDS011;43493;53.098;6.064;2023-04-29T02:40:44;33.23;;;22.03;;
57663;SDS011;43493;53.098;6.064;2023-04-29T02:43:10;35.93;;;17.97;;
57663;SDS011;43493;53.098;6.064;2023-04-29T02:45:36;41.33;;;23.73;;
57663;SDS011;43493;53.098;6.064;2023-04-29T02:48:03;36.87;;;21.97;;
57663;SDS011;43493;53.098;6.064;2023-04-29T02:50:30;38.87;;;22.33;;
57663;SDS011;43493;53.098;6.064;2023-04-29T02:52:55;42.23;;;23.97;;
57663;SDS011;43493;53.098;6.064;2023-04-29T02:55:21;40.17;;;23.47;;
57663;SDS011;43493;53.098;6.064;2023-04-29T02:57:47;41.20;;;23.13;;
57663;SDS011;43493;53.098;6.064;2023-04-29T03:00:13;39.87;;;23.77;;
57663;SDS011;43493;53.098;6.064;2023-04-29T03:02:39;36.80;;;22.67;;
57663;SDS011;43493;53.098;6.064;2023-04-29T03:05:05;32.20;;;20.87;;
57663;SDS011;43493;53.098;6.064;2023-04-29T03:07:31;36.70;;;21.80;;
57663;SDS011;43493;53.098;6.064;2023-04-29T03:09:57;40.77;;;22.37;;
57663;SDS011;43493;53.098;6.064;2023-04-29T03:12:23;37.90;;;21.70;;
57663;SDS011;43493;53.098;6.064;2023-04-29T03:14:49;32.17;;;18.73;;
57663;SDS011;43493;53.098;6.064;2023-04-29T03:17:16;37.67;;;20.53;;
57663;SDS011;43493;53.098;6.064;2023-04-29T03:19:42;32.57;;;19.10;;
57663;SDS011;43493;53.098;6.064;2023-04-29T03:22:07;35.77;;;19.33;;
57663;SDS011;43493;53.098;6.064;2023-04-29T03:24:35;31.63;;;19.07;;
57663;SDS011;43493;53.098;6.064;2023-04-29T03:27:02;36.33;;;19.90;;
57663;SDS011;43493;53.098;6.064;2023-04-29T03:29:29;34.00;;;19.03;;
57663;SDS011;43493;53.098;6.064;2023-04-29T03:31:55;34.23;;;19.70;;
57663;SDS011;43493;53.098;6.064;2023-04-29T03:34:21;29.07;;;18.03;;
57663;SDS011;43493;53.098;6.064;2023-04-29T03:36:48;31.93;;;18.50;;
57663;SDS011;43493;53.098;6.064;2023-04-29T03:39:15;30.67;;;19.37;;
57663;SDS011;43493;53.098;6.064;2023-04-29T03:41:41;28.43;;;16.90;;
57663;SDS011;43493;53.098;6.064;2023-04-29T03:44:06;27.10;;;16.53;;
57663;SDS011;43493;53.098;6.064;2023-04-29T03:46:32;28.93;;;18.17;;
57663;SDS011;43493;53.098;6.064;2023-04-29T03:48:58;27.80;;;16.53;;
57663;SDS011;43493;53.098;6.064;2023-04-29T03:51:24;25.47;;;15.97;;
57663;SDS011;43493;53.098;6.064;2023-04-29T03:53:50;27.13;;;15.73;;
57663;SDS011;43493;53.098;6.064;2023-04-29T03:56:17;26.13;;;14.70;;
57663;SDS011;43493;53.098;6.064;2023-04-29T03:58:43;26.57;;;15.77;;
57663;SDS011;43493;53.098;6.064;2023-04-29T04:01:09;25.23;;;15.40;;
57663;SDS011;43493;53.098;6.064;2023-04-29T04:03:36;27.63;;;15.03;;
57663;SDS011;43493;53.098;6.064;2023-04-29T04:06:01;25.17;;;16.13;;
57663;SDS011;43493;53.098;6.064;2023-04-29T04:08:27;23.53;;;15.37;;
57663;SDS011;43493;53.098;6.064;2023-04-29T04:10:53;21.77;;;14.63;;
57663;SDS011;43493;53.098;6.064;2023-04-29T04:13:19;21.33;;;15.17;;
57663;SDS011;43493;53.098;6.064;2023-04-29T04:15:49;20.93;;;14.77;;
57663;SDS011;43493;53.098;6.064;2023-04-29T04:18:16;26.83;;;14.13;;
57663;SDS011;43493;53.098;6.064;2023-04-29T04:20:42;23.87;;;15.17;;
57663;SDS011;43493;53.098;6.064;2023-04-29T04:23:07;22.67;;;13.93;;
57663;SDS011;43493;53.098;6.064;2023-04-29T04:25:33;24.00;;;13.97;;
57663;SDS011;43493;53.098;6.064;2023-04-29T04:27:59;21.93;;;13.47;;
57663;SDS011;43493;53.098;6.064;2023-04-29T04:30:24;25.93;;;13.03;;
57663;SDS011;43493;53.098;6.064;2023-04-29T04:32:50;20.90;;;13.50;;
57663;SDS011;43493;53.098;6.064;2023-04-29T04:35:16;27.50;;;13.37;;
57663;SDS011;43493;53.098;6.064;2023-04-29T04:37:41;21.83;;;13.20;;
57663;SDS011;43493;53.098;6.064;2023-04-29T04:40:07;21.37;;;13.00;;
57663;SDS011;43493;53.098;6.064;2023-04-29T04:42:35;21.20;;;13.53;;
57663;SDS011;43493;53.098;6.064;2023-04-29T04:45:01;22.17;;;13.20;;
57663;SDS011;43493;53.098;6.064;2023-04-29T04:47:26;21.70;;;13.30;;
57663;SDS011;43493;53.098;6.064;2023-04-29T04:49:52;21.83;;;13.33;;
57663;SDS011;43493;53.098;6.064;2023-04-29T04:52:21;21.60;;;12.13;;
57663;SDS011;43493;53.098;6.064;2023-04-29T04:54:47;21.03;;;12.47;;
57663;SDS011;43493;53.098;6.064;2023-04-29T04:57:13;23.40;;;12.73;;
57663;SDS011;43493;53.098;6.064;2023-04-29T04:59:38;22.07;;;12.67;;
57663;SDS011;43493;53.098;6.064;2023-04-29T05:02:04;18.27;;;12.07;;
57663;SDS011;43493;53.098;6.064;2023-04-29T05:04:30;20.97;;;11.90;;
57663;SDS011;43493;53.098;6.064;2023-04-29T05:06:56;21.97;;;11.63;;
57663;SDS011;43493;53.098;6.064;2023-04-29T05:09:21;20.90;;;11.80;;
57663;SDS011;43493;53.098;6.064;2023-04-29T05:11:47;19.43;;;10.83;;
57663;SDS011;43493;53.098;6.064;2023-04-29T05:14:13;20.93;;;12.17;;
57663;SDS011;43493;53.098;6.064;2023-04-29T05:16:39;17.93;;;10.10;;
57663;SDS011;43493;53.098;6.064;2023-04-29T05:19:04;15.23;;;9.73;;
57663;SDS011;43493;53.098;6.064;2023-04-29T05:21:30;15.37;;;10.00;;
57663;SDS011;43493;53.098;6.064;2023-04-29T05:23:56;14.60;;;9.63;;
57663;SDS011;43493;53.098;6.064;2023-04-29T05:26:22;19.00;;;9.07;;
57663;SDS011;43493;53.098;6.064;2023-04-29T05:28:48;20.53;;;10.30;;
57663;SDS011;43493;53.098;6.064;2023-04-29T05:31:13;17.53;;;8.00;;
57663;SDS011;43493;53.098;6.064;2023-04-29T05:33:39;18.30;;;9.30;;
57663;SDS011;43493;53.098;6.064;2023-04-29T05:36:05;17.07;;;9.73;;
57663;SDS011;43493;53.098;6.064;2023-04-29T05:38:31;15.47;;;8.90;;
57663;SDS011;43493;53.098;6.064;2023-04-29T05:40:57;16.57;;;8.30;;
57663;SDS011;43493;53.098;6.064;2023-04-29T05:43:23;15.30;;;8.93;;
57663;SDS011;43493;53.098;6.064;2023-04-29T05:45:49;13.77;;;8.43;;
57663;SDS011;43493;53.098;6.064;2023-04-29T05:48:15;15.60;;;8.83;;
57663;SDS011;43493;53.098;6.064;2023-04-29T05:50:41;11.20;;;8.17;;
57663;SDS011;43493;53.098;6.064;2023-04-29T05:53:06;15.17;;;8.10;;
57663;SDS011;43493;53.098;6.064;2023-04-29T05:55:32;16.00;;;7.20;;
57663;SDS011;43493;53.098;6.064;2023-04-29T05:57:59;14.17;;;7.37;;
57663;SDS011;43493;53.098;6.064;2023-04-29T06:00:24;12.37;;;7.17;;
57663;SDS011;43493;53.098;6.064;2023-04-29T06:02:50;13.40;;;6.77;;
57663;SDS011;43493;53.098;6.064;2023-04-29T06:05:16;13.57;;;7.33;;
57663;SDS011;43493;53.098;6.064;2023-04-29T06:07:41;11.43;;;6.50;;
57663;SDS011;43493;53.098;6.064;2023-04-29T06:10:08;10.93;;;6.93;;
57663;SDS011;43493;53.098;6.064;2023-04-29T06:12:35;11.83;;;6.70;;
57663;SDS011;43493;53.098;6.064;2023-04-29T06:15:00;11.87;;;6.13;;
57663;SDS011;43493;53.098;6.064;2023-04-29T06:17:26;11.80;;;5.87;;
57663;SDS011;43493;53.098;6.064;2023-04-29T06:19:55;13.53;;;6.00;;
57663;SDS011;43493;53.098;6.064;2023-04-29T06:22:20;10.80;;;6.23;;
57663;SDS011;43493;53.098;6.064;2023-04-29T06:24:46;9.60;;;6.10;;
57663;SDS011;43493;53.098;6.064;2023-04-29T06:27:14;10.63;;;5.70;;
57663;SDS011;43493;53.098;6.064;2023-04-29T06:29:40;12.27;;;6.17;;
57663;SDS011;43493;53.098;6.064;2023-04-29T06:32:06;9.83;;;5.20;;
57663;SDS011;43493;53.098;6.064;2023-04-29T06:34:32;13.00;;;6.07;;
57663;SDS011;43493;53.098;6.064;2023-04-29T06:36:58;10.53;;;5.80;;
57663;SDS011;43493;53.098;6.064;2023-04-29T06:39:24;11.23;;;5.47;;
57663;SDS011;43493;53.098;6.064;2023-04-29T06:41:50;9.53;;;5.43;;
57663;SDS011;43493;53.098;6.064;2023-04-29T06:44:16;9.87;;;5.83;;
57663;SDS011;43493;53.098;6.064;2023-04-29T06:46:43;10.87;;;6.17;;
57663;SDS011;43493;53.098;6.064;2023-04-29T06:49:09;9.20;;;5.13;;
57663;SDS011;43493;53.098;6.064;2023-04-29T06:51:38;10.33;;;5.43;;
57663;SDS011;43493;53.098;6.064;2023-04-29T06:54:04;10.47;;;5.23;;
57663;SDS011;43493;53.098;6.064;2023-04-29T06:56:29;10.43;;;5.00;;
57663;SDS011;43493;53.098;6.064;2023-04-29T06:58:55;13.77;;;5.43;;
57663;SDS011;43493;53.098;6.064;2023-04-29T07:01:21;10.23;;;5.27;;
57663;SDS011;43493;53.098;6.064;2023-04-29T07:03:47;9.90;;;5.27;;
57663;SDS011;43493;53.098;6.064;2023-04-29T07:06:12;13.00;;;5.83;;
57663;SDS011;43493;53.098;6.064;2023-04-29T07:08:38;10.17;;;5.37;;
57663;SDS011;43493;53.098;6.064;2023-04-29T07:11:04;10.10;;;5.60;;
57663;SDS011;43493;53.098;6.064;2023-04-29T07:13:30;11.20;;;5.67;;
57663;SDS011;43493;53.098;6.064;2023-04-29T07:15:55;10.83;;;4.97;;
57663;SDS011;43493;53.098;6.064;2023-04-29T07:18:21;9.47;;;5.77;;
57663;SDS011;43493;53.098;6.064;2023-04-29T07:20:47;10.37;;;5.37;;
57663;SDS011;43493;53.098;6.064;2023-04-29T07:23:15;9.97;;;5.10;;
57663;SDS011;43493;53.098;6.064;2023-04-29T07:25:40;9.73;;;4.73;;
57663;SDS011;43493;53.098;6.064;2023-04-29T07:28:06;10.10;;;4.70;;
57663;SDS011;43493;53.098;6.064;2023-04-29T07:30:35;8.87;;;4.57;;
57663;SDS011;43493;53.098;6.064;2023-04-29T07:33:01;11.37;;;5.03;;
57663;SDS011;43493;53.098;6.064;2023-04-29T07:35:28;9.63;;;5.13;;
57663;SDS011;43493;53.098;6.064;2023-04-29T07:37:54;7.50;;;4.57;;
57663;SDS011;43493;53.098;6.064;2023-04-29T07:40:21;8.23;;;5.00;;
57663;SDS011;43493;53.098;6.064;2023-04-29T07:42:46;8.93;;;5.07;;
57663;SDS011;43493;53.098;6.064;2023-04-29T07:45:12;8.67;;;4.27;;
57663;SDS011;43493;53.098;6.064;2023-04-29T07:47:39;9.80;;;4.93;;
57663;SDS011;43493;53.098;6.064;2023-04-29T07:50:05;7.20;;;4.33;;
57663;SDS011;43493;53.098;6.064;2023-04-29T07:52:31;9.57;;;4.40;;
57663;SDS011;43493;53.098;6.064;2023-04-29T07:54:56;6.97;;;3.73;;
57663;SDS011;43493;53.098;6.064;2023-04-29T07:57:22;11.17;;;4.97;;
57663;SDS011;43493;53.098;6.064;2023-04-29T07:59:54;8.20;;;4.50;;
57663;SDS011;43493;53.098;6.064;2023-04-29T08:02:20;10.43;;;4.73;;
57663;SDS011;43493;53.098;6.064;2023-04-29T08:04:46;10.80;;;4.40;;
57663;SDS011;43493;53.098;6.064;2023-04-29T08:07:11;10.50;;;4.57;;
57663;SDS011;43493;53.098;6.064;2023-04-29T08:09:37;9.60;;;4.67;;
57663;SDS011;43493;53.098;6.064;2023-04-29T08:12:03;10.83;;;4.10;;
57663;SDS011;43493;53.098;6.064;2023-04-29T08:14:29;8.13;;;4.00;;
57663;SDS011;43493;53.098;6.064;2023-04-29T08:16:55;11.07;;;4.43;;
57663;SDS011;43493;53.098;6.064;2023-04-29T08:19:21;13.40;;;4.67;;
57663;SDS011;43493;53.098;6.064;2023-04-29T08:21:46;10.83;;;4.80;;
57663;SDS011;43493;53.098;6.064;2023-04-29T08:24:12;7.70;;;3.90;;
57663;SDS011;43493;53.098;6.064;2023-04-29T08:26:41;12.47;;;4.30;;
57663;SDS011;43493;53.098;6.064;2023-04-29T08:29:13;9.17;;;4.17;;
57663;SDS011;43493;53.098;6.064;2023-04-29T08:31:38;7.87;;;4.10;;
57663;SDS011;43493;53.098;6.064;2023-04-29T08:34:05;8.83;;;4.40;;
57663;SDS011;43493;53.098;6.064;2023-04-29T08:36:30;10.10;;;3.97;;
57663;SDS011;43493;53.098;6.064;2023-04-29T08:38:56;7.00;;;4.17;;
57663;SDS011;43493;53.098;6.064;2023-04-29T08:41:22;8.53;;;4.33;;
57663;SDS011;43493;53.098;6.064;2023-04-29T08:43:48;6.77;;;4.53;;
57663;SDS011;43493;53.098;6.064;2023-04-29T08:46:14;8.30;;;4.63;;
57663;SDS011;43493;53.098;6.064;2023-04-29T08:48:42;7.77;;;4.83;;
57663;SDS011;43493;53.098;6.064;2023-04-29T08:51:10;7.20;;;4.90;;
57663;SDS011;43493;53.098;6.064;2023-04-29T08:53:37;9.53;;;5.50;;
57663;SDS011;43493;53.098;6.064;2023-04-29T08:56:08;11.13;;;5.77;;
57663;SDS011;43493;53.098;6.064;2023-04-29T08:58:41;8.47;;;5.60;;
57663;SDS011;43493;53.098;6.064;2023-04-29T09:01:08;8.60;;;5.60;;
57663;SDS011;43493;53.098;6.064;2023-04-29T09:03:53;11.00;;;5.67;;
57663;SDS011;43493;53.098;6.064;2023-04-29T09:06:29;8.70;;;5.43;;
57663;SDS011;43493;53.098;6.064;2023-04-29T09:08:58;9.63;;;5.13;;
57663;SDS011;43493;53.098;6.064;2023-04-29T09:11:25;9.63;;;5.10;;
57663;SDS011;43493;53.098;6.064;2023-04-29T09:13:57;10.47;;;5.37;;
57663;SDS011;43493;53.098;6.064;2023-04-29T09:16:24;9.17;;;5.10;;
57663;SDS011;43493;53.098;6.064;2023-04-29T09:18:50;8.53;;;5.43;;
57663;SDS011;43493;53.098;6.064;2023-04-29T09:23:51;11.43;;;5.50;;
57663;SDS011;43493;53.098;6.064;2023-04-29T09:26:35;7.50;;;5.37;;
57663;SDS011;43493;53.098;6.064;2023-04-29T09:29:07;9.90;;;5.23;;
57663;SDS011;43493;53.098;6.064;2023-04-29T09:31:36;10.37;;;5.90;;
57663;SDS011;43493;53.098;6.064;2023-04-29T09:34:03;9.63;;;5.20;;
57663;SDS011;43493;53.098;6.064;2023-04-29T09:36:48;10.03;;;5.60;;
57663;SDS011;43493;53.098;6.064;2023-04-29T09:39:16;12.50;;;5.57;;
57663;SDS011;43493;53.098;6.064;2023-04-29T09:44:21;8.35;;;4.63;;
57663;SDS011;43493;53.098;6.064;2023-04-29T09:47:01;9.47;;;5.50;;
57663;SDS011;43493;53.098;6.064;2023-04-29T09:52:05;7.77;;;5.00;;
57663;SDS011;43493;53.098;6.064;2023-04-29T09:54:33;9.37;;;5.30;;
57663;SDS011;43493;53.098;6.064;2023-04-29T09:57:03;9.77;;;5.30;;
57663;SDS011;43493;53.098;6.064;2023-04-29T09:59:36;11.23;;;5.63;;
57663;SDS011;43493;53.098;6.064;2023-04-29T10:02:13;12.53;;;5.00;;
57663;SDS011;43493;53.098;6.064;2023-04-29T10:04:43;9.73;;;5.53;;
57663;SDS011;43493;53.098;6.064;2023-04-29T10:07:14;12.60;;;4.97;;
57663;SDS011;43493;53.098;6.064;2023-04-29T10:09:41;8.53;;;5.10;;
57663;SDS011;43493;53.098;6.064;2023-04-29T10:12:08;10.37;;;4.63;;
57663;SDS011;43493;53.098;6.064;2023-04-29T10:14:37;8.60;;;3.73;;
57663;SDS011;43493;53.098;6.064;2023-04-29T10:17:20;13.68;;;5.03;;
57663;SDS011;43493;53.098;6.064;2023-04-29T10:19:57;9.95;;;3.50;;
57663;SDS011;43493;53.098;6.064;2023-04-29T10:22:45;6.53;;;3.80;;
57663;SDS011;43493;53.098;6.064;2023-04-29T10:25:12;9.83;;;3.60;;
57663;SDS011;43493;53.098;6.064;2023-04-29T10:27:43;6.53;;;3.10;;
57663;SDS011;43493;53.098;6.064;2023-04-29T10:30:13;5.73;;;3.20;;
57663;SDS011;43493;53.098;6.064;2023-04-29T10:32:41;6.37;;;3.13;;
57663;SDS011;43493;53.098;6.064;2023-04-29T10:35:08;6.83;;;3.33;;
57663;SDS011;43493;53.098;6.064;2023-04-29T10:37:45;8.13;;;3.77;;
57663;SDS011;43493;53.098;6.064;2023-04-29T10:42:47;4.88;;;2.38;;
57663;SDS011;43493;53.098;6.064;2023-04-29T10:45:17;6.70;;;3.00;;
57663;SDS011;43493;53.098;6.064;2023-04-29T10:50:33;6.13;;;2.90;;
57663;SDS011;43493;53.098;6.064;2023-04-29T10:53:03;6.37;;;3.17;;
57663;SDS011;43493;53.098;6.064;2023-04-29T10:55:29;6.63;;;3.00;;
57663;SDS011;43493;53.098;6.064;2023-04-29T10:57:56;6.00;;;2.67;;
57663;SDS011;43493;53.098;6.064;2023-04-29T11:00:25;5.47;;;2.50;;
57663;SDS011;43493;53.098;6.064;2023-04-29T11:02:55;4.67;;;2.40;;
57663;SDS011;43493;53.098;6.064;2023-04-29T11:05:29;7.33;;;2.90;;
57663;SDS011;43493;53.098;6.064;2023-04-29T11:10:36;4.17;;;2.03;;
57663;SDS011;43493;53.098;6.064;2023-04-29T11:13:25;5.03;;;2.30;;
57663;SDS011;43493;53.098;6.064;2023-04-29T11:16:10;5.00;;;2.03;;
57663;SDS011;43493;53.098;6.064;2023-04-29T11:19:02;6.37;;;1.87;;
57663;SDS011;43493;53.098;6.064;2023-04-29T11:21:32;4.17;;;2.10;;
57663;SDS011;43493;53.098;6.064;2023-04-29T11:23:59;5.37;;;2.27;;
57663;SDS011;43493;53.098;6.064;2023-04-29T11:26:26;7.53;;;2.97;;
57663;SDS011;43493;53.098;6.064;2023-04-29T11:28:52;4.47;;;2.40;;
57663;SDS011;43493;53.098;6.064;2023-04-29T11:31:18;6.27;;;2.83;;
57663;SDS011;43493;53.098;6.064;2023-04-29T11:33:45;6.83;;;2.40;;
57663;SDS011;43493;53.098;6.064;2023-04-29T11:36:11;6.07;;;2.33;;
57663;SDS011;43493;53.098;6.064;2023-04-29T11:38:38;6.53;;;2.17;;
57663;SDS011;43493;53.098;6.064;2023-04-29T11:41:07;6.63;;;2.13;;
57663;SDS011;43493;53.098;6.064;2023-04-29T11:43:35;8.93;;;2.40;;
57663;SDS011;43493;53.098;6.064;2023-04-29T11:46:10;6.93;;;2.30;;
57663;SDS011;43493;53.098;6.064;2023-04-29T11:48:48;5.87;;;2.10;;
57663;SDS011;43493;53.098;6.064;2023-04-29T11:51:15;4.47;;;1.93;;
57663;SDS011;43493;53.098;6.064;2023-04-29T11:53:43;6.77;;;2.00;;
57663;SDS011;43493;53.098;6.064;2023-04-29T11:56:09;6.43;;;2.13;;
57663;SDS011;43493;53.098;6.064;2023-04-29T11:58:36;5.73;;;2.30;;
57663;SDS011;43493;53.098;6.064;2023-04-29T12:01:02;5.67;;;2.30;;
57663;SDS011;43493;53.098;6.064;2023-04-29T12:03:30;6.53;;;2.50;;
57663;SDS011;43493;53.098;6.064;2023-04-29T12:05:57;6.03;;;2.30;;
57663;SDS011;43493;53.098;6.064;2023-04-29T12:08:26;5.13;;;2.33;;
57663;SDS011;43493;53.098;6.064;2023-04-29T12:10:54;4.20;;;1.90;;
57663;SDS011;43493;53.098;6.064;2023-04-29T12:13:21;5.93;;;2.13;;
57663;SDS011;43493;53.098;6.064;2023-04-29T12:15:49;5.33;;;2.10;;
57663;SDS011;43493;53.098;6.064;2023-04-29T12:18:16;9.37;;;2.37;;
57663;SDS011;43493;53.098;6.064;2023-04-29T12:20:42;7.77;;;2.17;;
57663;SDS011;43493;53.098;6.064;2023-04-29T12:23:15;5.63;;;2.57;;
57663;SDS011;43493;53.098;6.064;2023-04-29T12:25:49;5.93;;;2.30;;
57663;SDS011;43493;53.098;6.064;2023-04-29T12:28:16;4.60;;;2.07;;
57663;SDS011;43493;53.098;6.064;2023-04-29T12:30:43;8.17;;;2.03;;
57663;SDS011;43493;53.098;6.064;2023-04-29T12:33:09;5.70;;;1.60;;
57663;SDS011;43493;53.098;6.064;2023-04-29T12:35:39;3.90;;;1.80;;
57663;SDS011;43493;53.098;6.064;2023-04-29T12:38:05;10.10;;;1.93;;
57663;SDS011;43493;53.098;6.064;2023-04-29T12:40:31;4.00;;;1.57;;
57663;SDS011;43493;53.098;6.064;2023-04-29T12:43:05;6.03;;;2.20;;
57663;SDS011;43493;53.098;6.064;2023-04-29T12:45:32;4.57;;;1.57;;
57663;SDS011;43493;53.098;6.064;2023-04-29T12:47:59;4.63;;;1.80;;
57663;SDS011;43493;53.098;6.064;2023-04-29T12:50:43;3.87;;;1.60;;
57663;SDS011;43493;53.098;6.064;2023-04-29T12:53:14;5.00;;;1.63;;
57663;SDS011;43493;53.098;6.064;2023-04-29T12:55:40;4.27;;;1.93;;
57663;SDS011;43493;53.098;6.064;2023-04-29T12:58:06;3.20;;;1.40;;
57663;SDS011;43493;53.098;6.064;2023-04-29T13:00:33;4.43;;;2.07;;
57663;SDS011;43493;53.098;6.064;2023-04-29T13:03:01;5.27;;;1.60;;
57663;SDS011;43493;53.098;6.064;2023-04-29T13:05:27;3.87;;;1.70;;
57663;SDS011;43493;53.098;6.064;2023-04-29T13:07:52;5.63;;;1.80;;
57663;SDS011;43493;53.098;6.064;2023-04-29T13:10:18;4.70;;;1.40;;
57663;SDS011;43493;53.098;6.064;2023-04-29T13:12:44;5.13;;;1.90;;
57663;SDS011;43493;53.098;6.064;2023-04-29T13:15:11;4.43;;;1.87;;
57663;SDS011;43493;53.098;6.064;2023-04-29T13:17:37;3.67;;;1.50;;
57663;SDS011;43493;53.098;6.064;2023-04-29T13:20:04;5.27;;;1.73;;
57663;SDS011;43493;53.098;6.064;2023-04-29T13:22:30;3.50;;;1.50;;
57663;SDS011;43493;53.098;6.064;2023-04-29T13:24:56;4.87;;;1.80;;
57663;SDS011;43493;53.098;6.064;2023-04-29T13:27:22;4.83;;;2.20;;
57663;SDS011;43493;53.098;6.064;2023-04-29T13:29:48;6.23;;;2.50;;
57663;SDS011;43493;53.098;6.064;2023-04-29T13:32:14;4.63;;;1.93;;
57663;SDS011;43493;53.098;6.064;2023-04-29T13:34:40;6.63;;;2.33;;
57663;SDS011;43493;53.098;6.064;2023-04-29T13:37:10;4.27;;;2.27;;
57663;SDS011;43493;53.098;6.064;2023-04-29T13:39:36;4.10;;;1.97;;
57663;SDS011;43493;53.098;6.064;2023-04-29T13:42:02;6.03;;;2.07;;
57663;SDS011;43493;53.098;6.064;2023-04-29T13:44:28;6.77;;;2.40;;
57663;SDS011;43493;53.098;6.064;2023-04-29T13:46:54;5.73;;;2.60;;
57663;SDS011;43493;53.098;6.064;2023-04-29T13:49:20;7.80;;;2.70;;
57663;SDS011;43493;53.098;6.064;2023-04-29T13:51:46;6.90;;;2.60;;
57663;SDS011;43493;53.098;6.064;2023-04-29T13:54:13;5.43;;;2.60;;
57663;SDS011;43493;53.098;6.064;2023-04-29T13:56:38;6.30;;;2.77;;
57663;SDS011;43493;53.098;6.064;2023-04-29T13:59:04;5.20;;;2.17;;
57663;SDS011;43493;53.098;6.064;2023-04-29T14:01:30;7.57;;;2.60;;
57663;SDS011;43493;53.098;6.064;2023-04-29T14:03:56;4.93;;;2.70;;
57663;SDS011;43493;53.098;6.064;2023-04-29T14:06:22;6.30;;;2.53;;
57663;SDS011;43493;53.098;6.064;2023-04-29T14:08:48;6.13;;;2.53;;
57663;SDS011;43493;53.098;6.064;2023-04-29T14:11:13;5.50;;;3.13;;
57663;SDS011;43493;53.098;6.064;2023-04-29T14:13:40;6.40;;;3.00;;
57663;SDS011;43493;53.098;6.064;2023-04-29T14:16:06;4.93;;;2.37;;
57663;SDS011;43493;53.098;6.064;2023-04-29T14:18:33;6.70;;;3.47;;
57663;SDS011;43493;53.098;6.064;2023-04-29T14:20:59;7.50;;;3.80;;
57663;SDS011;43493;53.098;6.064;2023-04-29T14:23:24;7.27;;;3.67;;
57663;SDS011;43493;53.098;6.064;2023-04-29T14:25:50;7.20;;;3.50;;
57663;SDS011;43493;53.098;6.064;2023-04-29T14:28:16;8.23;;;3.70;;
57663;SDS011;43493;53.098;6.064;2023-04-29T14:30:42;7.93;;;4.53;;
57663;SDS011;43493;53.098;6.064;2023-04-29T14:33:08;7.93;;;4.90;;
57663;SDS011;43493;53.098;6.064;2023-04-29T14:35:33;8.23;;;4.70;;
57663;SDS011;43493;53.098;6.064;2023-04-29T14:37:59;11.30;;;4.47;;
57663;SDS011;43493;53.098;6.064;2023-04-29T14:40:25;9.10;;;5.20;;
57663;SDS011;43493;53.098;6.064;2023-04-29T14:42:51;8.83;;;4.90;;
57663;SDS011;43493;53.098;6.064;2023-04-29T14:45:16;10.10;;;5.40;;
57663;SDS011;43493;53.098;6.064;2023-04-29T14:47:42;8.60;;;5.10;;
57663;SDS011;43493;53.098;6.064;2023-04-29T14:50:08;8.30;;;4.60;;
57663;SDS011;43493;53.098;6.064;2023-04-29T14:52:34;12.33;;;5.57;;
57663;SDS011;43493;53.098;6.064;2023-04-29T14:55:00;10.63;;;5.50;;
57663;SDS011;43493;53.098;6.064;2023-04-29T14:57:26;11.83;;;6.03;;
57663;SDS011;43493;53.098;6.064;2023-04-29T14:59:54;11.07;;;7.00;;
57663;SDS011;43493;53.098;6.064;2023-04-29T15:02:20;12.80;;;6.53;;
57663;SDS011;43493;53.098;6.064;2023-04-29T15:04:46;10.37;;;6.60;;
57663;SDS011;43493;53.098;6.064;2023-04-29T15:07:12;11.43;;;6.83;;
57663;SDS011;43493;53.098;6.064;2023-04-29T15:09:38;12.50;;;7.47;;